UKOH/KHE METAR and TAF weather

Enter ICAO airport designator
Station Type Date Time Source
UKOH METAR 2019/08/19 01:30 UTC NOAA

UKOH 190130Z 04002MPS CAVOK 16/11 Q1016 NOSIG


Station Type Date Time Source
UKOH Decoded METAR 2019/08/19 01:30 UTC NOAA

Station name not available
Aug 18, 2019 - 09:30 PM EDT / 2019.08.19 0130 UTC
Wind: from the NE (040 degrees) at 4 MPH (4 KT):0
Visibility: greater than 7 mile(s):0
Temperature: 60 F (16 C)
Dew Point: 51 F (11 C)
Relative Humidity: 72%
Pressure (altimeter): 30.00 in. Hg (1016 hPa)
ob: UKOH 190130Z 04002MPS CAVOK 16/11 Q1016 NOSIG
cycle: 1

Station Type Date Time Source
UKOH TAF UTC NOAA

Error!

Example: see airport list